Time;durP1;ratioP1;P1;durP2;ratioP2;P2;SDS_P1;SDS_P2;PMS_P1;PMS_P2;Temp;Humidity;BMP_temperature;BMP_pressure;BME280_temperature;BME280_humidity;BME280_pressure;Samples;Min_cycle;Max_cycle;Signal;HPM_P1;HPM_P2
2022/01/31 00:00:19;;;;;;;18.00;3.77;;;3.90;99.90;;;;;;5061573;28;20199;-46
2022/01/31 00:02:48;;;;;;;20.20;4.23;;;4.00;99.90;;;;;;5052447;28;20190;-43
2022/01/31 00:05:15;;;;;;;26.97;4.63;;;4.00;99.90;;;;;;5059252;28;20673;-43
2022/01/31 00:07:42;;;;;;;20.37;4.33;;;4.00;99.90;;;;;;5048772;28;20222;-46
2022/01/31 00:10:11;;;;;;;18.80;4.07;;;4.00;99.90;;;;;;5063091;28;20203;-43
2022/01/31 00:12:48;;;;;;;20.50;4.83;;;4.00;99.90;;;;;;5059318;28;20194;-42
2022/01/31 00:15:15;;;;;;;25.33;4.30;;;4.00;99.90;;;;;;5062805;28;20645;-43
2022/01/31 00:17:41;;;;;;;23.93;4.90;;;3.90;99.90;;;;;;5059095;28;20199;-45
2022/01/31 00:20:10;;;;;;;23.13;4.30;;;3.90;99.90;;;;;;5063211;28;20206;-45
2022/01/31 00:22:37;;;;;;;19.77;3.73;;;4.00;99.90;;;;;;5044209;28;20206;-43
2022/01/31 00:25:05;;;;;;;21.23;5.60;;;3.90;99.90;;;;;;5062885;28;20195;-49
2022/01/31 00:27:31;;;;;;;17.93;4.50;;;3.90;99.90;;;;;;5058660;28;20289;-44
2022/01/31 00:29:58;;;;;;;28.93;4.73;;;3.90;99.90;;;;;;5063210;28;20202;-42
2022/01/31 00:32:29;;;;;;;23.37;4.80;;;3.90;99.90;;;;;;5058504;28;20207;-44
2022/01/31 00:34:56;;;;;;;21.50;3.73;;;3.90;99.90;;;;;;5062275;28;20290;-43
2022/01/31 00:37:24;;;;;;;20.47;4.57;;;3.90;99.90;;;;;;5052097;28;20340;-44
2022/01/31 00:39:51;;;;;;;22.60;3.80;;;3.90;99.90;;;;;;5056764;28;20200;-47
2022/01/31 00:42:19;;;;;;;21.13;3.70;;;3.90;99.90;;;;;;5061790;28;20206;-43
2022/01/31 00:44:50;;;;;;;31.00;4.90;;;3.90;99.90;;;;;;5060475;28;20199;-43
2022/01/31 00:47:20;;;;;;;19.43;4.10;;;3.90;99.90;;;;;;5061559;28;20260;-43
2022/01/31 00:49:52;;;;;;;18.73;4.07;;;3.90;99.90;;;;;;5060824;28;20268;-44
2022/01/31 00:52:19;;;;;;;18.43;3.27;;;3.80;99.90;;;;;;5055284;28;20568;-46
2022/01/31 00:54:48;;;;;;;24.47;5.57;;;3.80;99.90;;;;;;5045810;28;20191;-44
2022/01/31 00:57:15;;;;;;;22.43;4.47;;;3.80;99.90;;;;;;5061652;28;20219;-43
2022/01/31 00:59:42;;;;;;;24.07;4.47;;;3.80;99.90;;;;;;5058139;28;20207;-45
2022/01/31 01:02:09;;;;;;;19.50;3.70;;;3.80;99.90;;;;;;5056788;28;20211;-44
2022/01/31 01:04:36;;;;;;;23.27;4.17;;;3.80;99.90;;;;;;5055623;28;20194;-49
2022/01/31 01:07:03;;;;;;;22.63;4.20;;;3.70;99.90;;;;;;5060552;28;20786;-45
2022/01/31 01:09:30;;;;;;;26.93;4.60;;;3.70;99.90;;;;;;5042863;28;20222;-48
2022/01/31 01:11:59;;;;;;;17.73;4.83;;;3.70;99.90;;;;;;5062276;28;20203;-43
2022/01/31 01:14:26;;;;;;;20.20;3.57;;;3.70;99.90;;;;;;5058762;28;20555;-45
2022/01/31 01:16:52;;;;;;;24.67;3.70;;;3.70;99.90;;;;;;5060068;28;20230;-48
2022/01/31 01:19:19;;;;;;;23.27;4.90;;;3.60;99.90;;;;;;5061358;28;20201;-47
2022/01/31 01:21:45;;;;;;;15.57;3.47;;;3.60;99.90;;;;;;5058898;28;20236;-44
2022/01/31 01:24:14;;;;;;;21.07;4.73;;;3.60;99.90;;;;;;5047917;28;20207;-45
2022/01/31 01:26:41;;;;;;;25.87;4.40;;;3.60;99.90;;;;;;5056958;28;20214;-47
2022/01/31 01:29:09;;;;;;;21.07;4.30;;;3.60;99.90;;;;;;5064616;28;20222;-43
2022/01/31 01:31:36;;;;;;;22.27;4.67;;;3.60;99.90;;;;;;5061713;28;20190;-42
2022/01/31 01:34:03;;;;;;;18.53;4.00;;;3.60;99.90;;;;;;5061748;28;20198;-47
2022/01/31 01:36:31;;;;;;;25.87;4.47;;;3.60;99.90;;;;;;5060269;28;20635;-44
2022/01/31 01:38:58;;;;;;;23.57;3.80;;;3.60;99.90;;;;;;5064130;28;20257;-47
2022/01/31 01:41:27;;;;;;;18.47;4.50;;;3.60;99.90;;;;;;5048317;28;20225;-45
2022/01/31 01:43:54;;;;;;;22.27;4.80;;;3.60;99.90;;;;;;5063651;28;20289;-42
2022/01/31 01:46:22;;;;;;;18.00;4.20;;;3.60;99.90;;;;;;5062616;28;20776;-43
2022/01/31 01:48:49;;;;;;;21.43;4.43;;;3.60;99.90;;;;;;5062630;28;20242;-46
2022/01/31 01:51:17;;;;;;;20.20;3.63;;;3.60;99.90;;;;;;5063773;28;20301;-43
2022/01/31 01:53:45;;;;;;;19.80;3.53;;;3.60;99.90;;;;;;5061641;28;20282;-46
2022/01/31 01:56:13;;;;;;;21.53;4.70;;;3.50;99.90;;;;;;5050911;28;20580;-43
2022/01/31 01:58:42;;;;;;;21.23;3.50;;;3.60;99.90;;;;;;5060514;28;20187;-47
2022/01/31 02:01:12;;;;;;;22.10;4.03;;;3.50;99.90;;;;;;5064076;28;20669;-46
2022/01/31 02:03:56;;;;;;;17.30;3.93;;;3.60;99.90;;;;;;5056060;28;20198;-47
2022/01/31 02:06:35;;;;;;;11.77;2.97;;;3.60;99.90;;;;;;5059200;28;20305;-47
2022/01/31 02:09:04;;;;;;;15.80;3.87;;;3.60;99.90;;;;;;5065330;28;20248;-45
2022/01/31 02:11:33;;;;;;;23.63;5.23;;;3.60;99.90;;;;;;5039596;28;20256;-43
2022/01/31 02:14:00;;;;;;;17.67;4.40;;;3.60;99.90;;;;;;5063881;28;20218;-45
2022/01/31 02:16:48;;;;;;;14.90;3.50;;;3.60;99.90;;;;;;5062477;28;20283;-47
2022/01/31 02:19:23;;;;;;;31.77;5.43;;;3.60;99.90;;;;;;5062212;28;20286;-43
2022/01/31 02:22:10;;;;;;;19.63;3.60;;;3.60;99.90;;;;;;5045965;28;20294;-45
2022/01/31 02:24:55;;;;;;;17.67;3.87;;;3.60;99.90;;;;;;5050466;28;20210;-43
2022/01/31 02:27:42;;;;;;;19.90;3.83;;;3.60;99.90;;;;;;5060102;28;20249;-45
2022/01/31 02:30:14;;;;;;;21.23;5.20;;;3.60;99.90;;;;;;5063710;28;20679;-43
2022/01/31 02:32:47;;;;;;;18.37;3.57;;;3.70;99.90;;;;;;5062805;28;20605;-44
2022/01/31 02:35:15;;;;;;;19.97;3.67;;;3.70;99.90;;;;;;5062471;28;20206;-44
2022/01/31 02:37:44;;;;;;;19.40;4.00;;;3.70;99.90;;;;;;5059849;28;20230;-43
2022/01/31 02:40:25;;;;;;;19.13;3.60;;;3.70;99.90;;;;;;5051269;28;20198;-46
2022/01/31 02:42:52;;;;;;;20.43;3.60;;;3.70;99.90;;;;;;5060049;28;20225;-44
2022/01/31 02:45:21;;;;;;;20.67;4.07;;;3.70;99.90;;;;;;5055520;28;20213;-43
2022/01/31 02:47:53;;;;;;;17.63;3.60;;;3.70;99.90;;;;;;5060346;28;20945;-44
2022/01/31 02:50:21;;;;;;;17.93;4.10;;;3.70;99.90;;;;;;5061135;28;20294;-43
2022/01/31 02:52:59;;;;;;;14.47;3.97;;;3.70;99.90;;;;;;5060936;28;20225;-46
2022/01/31 02:55:27;;;;;;;14.10;3.30;;;3.70;99.90;;;;;;5059623;28;20206;-43
2022/01/31 02:57:55;;;;;;;14.87;3.70;;;3.80;99.90;;;;;;5047498;28;20194;-49
2022/01/31 03:00:22;;;;;;;21.00;3.93;;;3.70;99.90;;;;;;5060583;28;20202;-44
2022/01/31 03:03:10;;;;;;;17.37;3.77;;;3.70;99.90;;;;;;5058414;28;20637;-43
2022/01/31 03:05:37;;;;;;;29.03;5.70;;;3.60;99.90;;;;;;5058718;28;20201;-42
2022/01/31 03:08:06;;;;;;;21.60;4.60;;;3.50;99.90;;;;;;5062697;28;20215;-46
2022/01/31 03:10:33;;;;;;;14.47;3.93;;;3.40;99.90;;;;;;5058840;28;20202;-47
2022/01/31 03:13:01;;;;;;;19.57;3.33;;;3.30;99.90;;;;;;5044133;28;20257;-42
2022/01/31 03:15:31;;;;;;;17.00;3.27;;;3.20;99.90;;;;;;5057563;28;20202;-44
2022/01/31 03:18:19;;;;;;;19.10;3.83;;;3.10;99.90;;;;;;5062136;28;20198;-44
2022/01/31 03:20:45;;;;;;;23.50;4.07;;;3.00;99.90;;;;;;5061698;28;20277;-43
2022/01/31 03:23:14;;;;;;;19.83;3.53;;;3.00;99.90;;;;;;5062525;28;20205;-42
2022/01/31 03:25:41;;;;;;;19.20;4.40;;;3.00;99.90;;;;;;5060436;28;20222;-42
2022/01/31 03:28:08;;;;;;;18.63;4.60;;;2.90;99.90;;;;;;5048946;28;20698;-44
2022/01/31 03:30:36;;;;;;;17.33;3.33;;;2.90;99.90;;;;;;5057947;28;20187;-45
2022/01/31 03:33:03;;;;;;;17.07;3.63;;;2.90;99.90;;;;;;5063635;28;20210;-47
2022/01/31 03:35:30;;;;;;;15.87;4.50;;;2.90;99.90;;;;;;5058932;28;20580;-41
2022/01/31 03:37:57;;;;;;;15.63;3.63;;;2.80;99.90;;;;;;5062049;28;20216;-42
2022/01/31 03:40:29;;;;;;;13.23;4.00;;;2.90;99.90;;;;;;5059243;28;20202;-46
2022/01/31 03:42:56;;;;;;;19.30;3.20;;;2.90;99.90;;;;;;5047341;28;20672;-43
2022/01/31 03:45:23;;;;;;;21.67;4.20;;;2.90;99.90;;;;;;5056274;28;20204;-43
2022/01/31 03:48:07;;;;;;;23.40;4.00;;;3.00;99.90;;;;;;5055740;28;20272;-43
2022/01/31 03:50:34;;;;;;;16.50;2.97;;;2.90;99.90;;;;;;5058286;28;20293;-46
2022/01/31 03:53:02;;;;;;;24.07;3.80;;;2.90;99.90;;;;;;5062217;28;20670;-43
2022/01/31 03:55:30;;;;;;;21.07;3.97;;;2.80;99.90;;;;;;5052430;28;20210;-44
2022/01/31 03:57:57;;;;;;;22.23;4.27;;;2.80;99.90;;;;;;5061570;28;20277;-47
2022/01/31 04:00:41;;;;;;;19.47;3.80;;;2.80;99.90;;;;;;5042106;28;20213;-44
2022/01/31 04:03:08;;;;;;;16.87;3.90;;;2.80;99.90;;;;;;5063223;28;20235;-45
2022/01/31 04:05:36;;;;;;;19.13;4.20;;;2.80;99.90;;;;;;5059514;28;20915;-46
2022/01/31 04:08:03;;;;;;;16.47;3.97;;;2.80;99.90;;;;;;5063291;28;20594;-43
2022/01/31 04:10:32;;;;;;;17.60;3.20;;;2.80;99.90;;;;;;5059612;28;20230;-42
2022/01/31 04:12:59;;;;;;;18.90;3.80;;;2.80;99.90;;;;;;5063045;28;20578;-43
2022/01/31 04:15:26;;;;;;;17.83;3.87;;;2.90;99.90;;;;;;5045705;28;20207;-42
2022/01/31 04:17:53;;;;;;;17.97;3.53;;;2.90;99.90;;;;;;5060634;28;20198;-42
2022/01/31 04:20:20;;;;;;;21.63;3.80;;;2.90;99.90;;;;;;5061433;28;20225;-42
2022/01/31 04:22:52;;;;;;;29.33;4.03;;;2.90;99.90;;;;;;5061020;28;20194;-47
2022/01/31 04:25:29;;;;;;;15.23;4.23;;;2.90;99.90;;;;;;5061674;28;20214;-45
2022/01/31 04:28:04;;;;;;;20.57;4.50;;;2.90;99.90;;;;;;5062706;28;20209;-46
2022/01/31 04:30:31;;;;;;;17.10;3.67;;;2.90;99.90;;;;;;5044777;28;20313;-41
2022/01/31 04:32:58;;;;;;;20.27;3.90;;;2.90;99.90;;;;;;5062898;28;20244;-43
2022/01/31 04:35:25;;;;;;;18.03;4.17;;;2.90;99.90;;;;;;5057677;28;20210;-42
2022/01/31 04:37:51;;;;;;;14.17;3.93;;;2.80;99.90;;;;;;5054383;28;20205;-45
2022/01/31 04:40:18;;;;;;;16.63;4.13;;;2.80;99.90;;;;;;5061418;28;20256;-42
2022/01/31 04:42:46;;;;;;;18.03;3.90;;;2.80;99.90;;;;;;5060682;28;20198;-43
2022/01/31 04:45:14;;;;;;;17.70;4.00;;;2.80;99.90;;;;;;5062753;28;20698;-44
2022/01/31 04:47:40;;;;;;;14.53;3.47;;;2.80;99.90;;;;;;5047605;28;20218;-46
2022/01/31 04:50:08;;;;;;;21.17;3.77;;;2.80;99.90;;;;;;5062600;28;20623;-47
2022/01/31 04:52:38;;;;;;;21.90;3.97;;;2.80;99.90;;;;;;5058726;28;20205;-42
2022/01/31 04:55:07;;;;;;;21.37;4.40;;;2.80;99.90;;;;;;5063141;28;20239;-45
2022/01/31 04:57:33;;;;;;;20.70;4.37;;;2.80;99.90;;;;;;5058564;28;20237;-44
2022/01/31 05:00:00;;;;;;;14.33;4.17;;;2.80;99.90;;;;;;5063062;28;20206;-43
2022/01/31 05:02:28;;;;;;;17.03;3.67;;;2.80;99.90;;;;;;5035329;28;20214;-41
2022/01/31 05:04:55;;;;;;;14.37;3.90;;;2.80;99.90;;;;;;5061696;28;20202;-43
2022/01/31 05:07:22;;;;;;;17.17;3.57;;;2.80;99.90;;;;;;5064396;28;20226;-43
2022/01/31 05:09:49;;;;;;;14.17;4.03;;;2.80;99.90;;;;;;5064053;28;20313;-41
2022/01/31 05:12:16;;;;;;;16.63;4.13;;;2.90;99.90;;;;;;5063149;28;20191;-42
2022/01/31 05:14:42;;;;;;;14.67;3.60;;;2.90;99.90;;;;;;5050766;28;20977;-41
2022/01/31 05:17:09;;;;;;;13.73;3.53;;;2.90;99.90;;;;;;5051389;28;20261;-42
2022/01/31 05:19:37;;;;;;;17.33;3.67;;;2.80;99.90;;;;;;5055164;28;20340;-45
2022/01/31 05:22:04;;;;;;;24.57;3.50;;;2.90;99.90;;;;;;5066258;28;20210;-43
2022/01/31 05:24:31;;;;;;;10.77;3.07;;;2.80;99.90;;;;;;5062521;28;20289;-44
2022/01/31 05:26:58;;;;;;;15.53;4.23;;;2.80;99.90;;;;;;5065897;28;20226;-45
2022/01/31 05:29:24;;;;;;;17.53;4.50;;;2.80;99.90;;;;;;5063528;28;20260;-41
2022/01/31 05:31:52;;;;;;;10.03;3.33;;;2.80;99.90;;;;;;5036516;28;20614;-42
2022/01/31 05:34:19;;;;;;;12.97;3.70;;;2.80;99.90;;;;;;5055373;28;20206;-45
2022/01/31 05:36:50;;;;;;;19.23;4.00;;;2.80;99.90;;;;;;5052328;28;20234;-44
2022/01/31 05:39:17;;;;;;;30.00;4.27;;;2.80;99.90;;;;;;5060685;28;20659;-42
2022/01/31 05:41:44;;;;;;;9.00;3.40;;;2.80;99.90;;;;;;5058679;28;20683;-42
2022/01/31 05:44:11;;;;;;;19.90;3.90;;;2.80;99.90;;;;;;5060508;28;20884;-45
2022/01/31 05:46:38;;;;;;;13.80;3.27;;;2.80;99.90;;;;;;5057222;28;20225;-42
2022/01/31 05:49:04;;;;;;;13.57;3.90;;;2.80;99.90;;;;;;5045770;28;20926;-45
2022/01/31 05:51:32;;;;;;;21.53;4.03;;;2.80;99.90;;;;;;5061971;28;20667;-46
2022/01/31 05:54:00;;;;;;;25.03;4.07;;;2.80;99.90;;;;;;5054474;28;20195;-42
2022/01/31 05:56:27;;;;;;;11.03;3.77;;;2.80;99.90;;;;;;5060022;28;20223;-43
2022/01/31 05:58:54;;;;;;;18.10;4.40;;;2.80;99.90;;;;;;5056328;28;20328;-41
2022/01/31 06:01:20;;;;;;;13.30;3.83;;;2.80;99.90;;;;;;5063683;28;20202;-42
2022/01/31 06:03:47;;;;;;;15.97;4.10;;;2.80;99.90;;;;;;5044130;28;20230;-42
2022/01/31 06:06:14;;;;;;;19.63;4.20;;;2.90;99.90;;;;;;5059971;28;20229;-42
2022/01/31 06:08:40;;;;;;;17.47;3.80;;;2.90;99.90;;;;;;5051975;28;20690;-42
2022/01/31 06:11:08;;;;;;;23.03;3.63;;;2.80;99.90;;;;;;5054373;28;20220;-42
2022/01/31 06:13:35;;;;;;;20.73;4.27;;;2.80;99.90;;;;;;5041873;28;20210;-41
2022/01/31 06:16:02;;;;;;;17.07;3.73;;;2.80;99.90;;;;;;5058493;28;20714;-44
2022/01/31 06:18:29;;;;;;;18.83;3.60;;;2.80;99.90;;;;;;5038122;28;20249;-47
2022/01/31 06:20:56;;;;;;;17.93;4.53;;;2.80;99.90;;;;;;5054706;28;20209;-42
2022/01/31 06:23:23;;;;;;;23.97;4.70;;;2.80;99.90;;;;;;5052343;28;20774;-44
2022/01/31 06:25:50;;;;;;;16.70;3.53;;;2.80;99.90;;;;;;5058979;28;20228;-43
2022/01/31 06:28:18;;;;;;;23.90;4.70;;;2.80;99.90;;;;;;5055054;28;20880;-44
2022/01/31 06:30:45;;;;;;;18.70;3.83;;;2.70;99.90;;;;;;5058646;28;20211;-44
2022/01/31 06:33:15;;;;;;;18.77;4.80;;;2.70;99.90;;;;;;5054941;28;20210;-41
2022/01/31 06:35:43;;;;;;;16.73;4.20;;;2.70;99.90;;;;;;5047561;28;20202;-46
2022/01/31 06:38:10;;;;;;;19.20;4.13;;;2.70;99.90;;;;;;5052574;28;20206;-43
2022/01/31 06:40:37;;;;;;;17.00;3.67;;;2.70;99.90;;;;;;5059800;28;20886;-42
2022/01/31 06:43:04;;;;;;;28.77;5.47;;;2.70;99.90;;;;;;5038797;28;20195;-41
2022/01/31 06:45:32;;;;;;;18.60;4.40;;;2.70;99.90;;;;;;5058009;28;20198;-42
2022/01/31 06:47:59;;;;;;;16.90;4.00;;;2.70;99.90;;;;;;5061472;28;20211;-42
2022/01/31 06:50:26;;;;;;;14.50;4.37;;;2.70;99.90;;;;;;5038318;28;20210;-43
2022/01/31 06:52:55;;;;;;;18.43;4.50;;;2.60;99.90;;;;;;5063686;28;20211;-44
2022/01/31 06:55:22;;;;;;;18.07;4.70;;;2.70;99.90;;;;;;5054405;28;20963;-41
2022/01/31 06:57:51;;;;;;;16.07;4.27;;;2.60;99.90;;;;;;5063857;28;20218;-42
2022/01/31 07:00:19;;;;;;;19.13;3.90;;;2.60;99.90;;;;;;5057464;28;20186;-41
2022/01/31 07:02:49;;;;;;;16.20;4.80;;;2.60;99.90;;;;;;5064194;28;20195;-43
2022/01/31 07:05:17;;;;;;;21.33;4.30;;;2.60;99.90;;;;;;5045965;28;20205;-41
2022/01/31 07:07:45;;;;;;;17.00;3.97;;;2.50;99.90;;;;;;5062193;28;20234;-41
2022/01/31 07:10:12;;;;;;;20.07;4.00;;;2.50;99.90;;;;;;5047457;28;20707;-41
2022/01/31 07:12:41;;;;;;;22.13;4.83;;;2.40;99.90;;;;;;5059497;28;20205;-45
2022/01/31 07:15:10;;;;;;;21.03;5.10;;;2.40;99.90;;;;;;5060035;28;20601;-41
2022/01/31 07:17:38;;;;;;;13.87;4.37;;;2.40;99.90;;;;;;5060323;28;20206;-43
2022/01/31 07:20:10;;;;;;;19.77;4.90;;;2.40;99.90;;;;;;5043756;28;20309;-43
2022/01/31 07:22:39;;;;;;;27.53;4.40;;;2.40;99.90;;;;;;5062977;28;20207;-45
2022/01/31 07:25:10;;;;;;;25.13;4.70;;;2.40;99.90;;;;;;5055559;28;20222;-43
2022/01/31 07:27:37;;;;;;;17.37;4.07;;;2.40;99.90;;;;;;5062437;28;20221;-41
2022/01/31 07:30:05;;;;;;;20.00;4.73;;;2.40;99.90;;;;;;5055680;28;20210;-42
2022/01/31 07:32:35;;;;;;;16.13;3.90;;;2.30;99.90;;;;;;5053127;28;20199;-42
2022/01/31 07:35:02;;;;;;;15.60;3.83;;;2.30;99.90;;;;;;5047116;28;20202;-44
2022/01/31 07:37:30;;;;;;;29.10;4.77;;;2.20;99.90;;;;;;5054894;28;20218;-41
2022/01/31 07:39:57;;;;;;;22.17;5.07;;;2.20;99.90;;;;;;5061517;28;20225;-41
2022/01/31 07:42:24;;;;;;;14.87;3.93;;;2.20;99.90;;;;;;5049302;28;20208;-41
2022/01/31 07:44:53;;;;;;;21.73;4.23;;;2.20;99.90;;;;;;5061417;28;20271;-41
2022/01/31 07:47:19;;;;;;;15.40;5.27;;;2.20;99.90;;;;;;5054524;28;20800;-48
2022/01/31 07:49:46;;;;;;;16.53;4.00;;;2.20;99.90;;;;;;5057270;28;20225;-42
2022/01/31 07:52:13;;;;;;;19.60;4.63;;;2.10;99.90;;;;;;5041727;28;20906;-41
2022/01/31 07:54:43;;;;;;;23.87;4.77;;;2.20;99.90;;;;;;5060913;28;20194;-42
2022/01/31 07:57:10;;;;;;;24.37;5.50;;;2.20;99.90;;;;;;5050561;28;20251;-44
2022/01/31 07:59:37;;;;;;;19.97;4.60;;;2.20;99.90;;;;;;5056557;28;20220;-44
2022/01/31 08:02:04;;;;;;;22.17;5.33;;;2.20;99.90;;;;;;5055639;28;20203;-43
2022/01/31 08:04:30;;;;;;;18.73;4.63;;;2.10;99.90;;;;;;5056793;28;20199;-44
2022/01/31 08:06:57;;;;;;;23.93;5.50;;;2.20;99.90;;;;;;5043902;28;20222;-43
2022/01/31 08:09:23;;;;;;;19.83;4.50;;;2.20;99.90;;;;;;5051110;28;20197;-43
2022/01/31 08:11:52;;;;;;;18.40;5.00;;;2.20;99.90;;;;;;5061976;28;20288;-41
2022/01/31 08:14:20;;;;;;;22.70;5.27;;;2.20;99.90;;;;;;5050331;28;20202;-44
2022/01/31 08:16:46;;;;;;;19.67;4.17;;;2.20;99.90;;;;;;5057479;28;20293;-43
2022/01/31 08:19:13;;;;;;;18.37;4.30;;;2.20;99.90;;;;;;5056691;28;20202;-42
2022/01/31 08:21:40;;;;;;;13.67;4.23;;;2.20;99.90;;;;;;5058363;28;20201;-42
2022/01/31 08:24:07;;;;;;;13.53;4.60;;;2.30;99.90;;;;;;5037158;28;20209;-43
2022/01/31 08:26:34;;;;;;;32.30;6.13;;;2.30;99.90;;;;;;5058943;28;20214;-42
2022/01/31 08:29:06;;;;;;;19.73;4.40;;;2.30;99.90;;;;;;5048069;28;20198;-43
2022/01/31 08:31:35;;;;;;;15.47;5.33;;;2.30;99.90;;;;;;5056080;28;20233;-41
2022/01/31 08:34:19;;;;;;;19.53;4.70;;;2.30;99.90;;;;;;5057914;28;20191;-42
2022/01/31 08:36:46;;;;;;;23.40;5.00;;;2.40;99.90;;;;;;5053034;28;20285;-43
2022/01/31 08:39:17;;;;;;;22.90;5.03;;;2.30;99.90;;;;;;5042419;28;20219;-47
2022/01/31 08:41:45;;;;;;;19.03;5.10;;;2.30;99.90;;;;;;5056694;28;20201;-41
2022/01/31 08:44:17;;;;;;;19.33;5.67;;;2.40;99.90;;;;;;5050561;28;20229;-41
2022/01/31 08:46:45;;;;;;;28.00;5.27;;;2.30;99.90;;;;;;5057398;28;20276;-43
2022/01/31 08:49:13;;;;;;;17.87;4.13;;;2.40;99.90;;;;;;5053972;28;20667;-42
2022/01/31 08:51:41;;;;;;;17.67;4.73;;;2.40;99.90;;;;;;5060996;28;20832;-44
2022/01/31 08:54:09;;;;;;;14.20;4.37;;;2.40;99.90;;;;;;5044053;28;20261;-43
2022/01/31 08:56:40;;;;;;;17.23;4.50;;;2.50;99.90;;;;;;5057872;28;20230;-42
2022/01/31 08:59:07;;;;;;;22.50;5.23;;;2.50;99.90;;;;;;5056318;28;20608;-42
2022/01/31 09:01:36;;;;;;;21.97;5.20;;;2.50;99.90;;;;;;5064184;28;20600;-44
2022/01/31 09:04:04;;;;;;;18.40;4.80;;;2.50;99.90;;;;;;5059733;28;20898;-43
2022/01/31 09:06:33;;;;;;;17.53;5.00;;;2.50;99.90;;;;;;5052590;28;20229;-43
2022/01/31 09:09:01;;;;;;;19.57;4.50;;;2.50;99.90;;;;;;5056767;28;20561;-41
2022/01/31 09:11:29;;;;;;;18.23;4.87;;;2.60;99.90;;;;;;5044287;28;20218;-48
2022/01/31 09:13:56;;;;;;;21.03;5.07;;;2.50;99.90;;;;;;5057745;28;20206;-43
2022/01/31 09:16:23;;;;;;;18.17;4.67;;;2.60;99.90;;;;;;5061629;28;20312;-42
2022/01/31 09:18:51;;;;;;;14.60;4.73;;;2.50;99.90;;;;;;5055458;28;20210;-45
2022/01/31 09:21:18;;;;;;;14.90;4.53;;;2.50;99.90;;;;;;5053969;28;20186;-42
2022/01/31 09:23:51;;;;;;;12.37;4.50;;;2.50;99.90;;;;;;5055994;28;20203;-46
2022/01/31 09:26:21;;;;;;;20.87;4.53;;;2.60;99.90;;;;;;5039790;28;23770;-43
2022/01/31 09:28:50;;;;;;;20.70;5.50;;;2.50;99.90;;;;;;5059428;28;20195;-43
2022/01/31 09:31:17;;;;;;;16.40;4.73;;;2.50;99.90;;;;;;5046704;28;20401;-42
2022/01/31 09:33:44;;;;;;;13.63;4.40;;;2.50;99.90;;;;;;5061048;28;20199;-42
2022/01/31 09:36:12;;;;;;;18.10;5.10;;;2.50;99.90;;;;;;5061823;28;20228;-43
2022/01/31 09:38:42;;;;;;;21.23;5.40;;;2.50;99.90;;;;;;5060717;28;20213;-42
2022/01/31 09:41:11;;;;;;;12.00;4.40;;;2.50;99.90;;;;;;5057289;28;20193;-42
2022/01/31 09:44:00;;;;;;;14.43;4.83;;;2.60;99.90;;;;;;5049905;28;20225;-41
2022/01/31 09:49:17;;;;;;;24.80;5.80;;;2.60;99.90;;;;;;5037621;28;20222;-49
2022/01/31 09:51:46;;;;;;;19.97;5.27;;;2.60;99.90;;;;;;5062498;28;20305;-46
2022/01/31 09:54:13;;;;;;;18.17;5.07;;;2.70;99.90;;;;;;5057769;28;20985;-46
2022/01/31 09:56:42;;;;;;;20.97;5.17;;;2.70;99.90;;;;;;5058158;28;20272;-43
2022/01/31 09:59:10;;;;;;;17.73;5.30;;;2.80;99.90;;;;;;5047233;28;20202;-41
2022/01/31 10:01:41;;;;;;;14.83;5.17;;;2.90;99.90;;;;;;5057345;28;20203;-42
2022/01/31 10:04:14;;;;;;;12.70;4.70;;;3.00;99.90;;;;;;5056061;28;20261;-43
2022/01/31 10:06:43;;;;;;;19.93;5.70;;;3.00;99.90;;;;;;5059594;28;20226;-42
2022/01/31 10:09:14;;;;;;;16.90;5.03;;;3.00;99.90;;;;;;5055529;28;20234;-42
2022/01/31 10:11:48;;;;;;;15.17;4.50;;;3.10;99.90;;;;;;5060812;28;20219;-43
2022/01/31 10:17:05;;;;;;;21.47;5.03;;;3.10;99.90;;;;;;5049038;28;20218;-44
2022/01/31 10:19:40;;;;;;;16.17;5.50;;;3.20;99.90;;;;;;5055129;28;20195;-44
2022/01/31 10:22:09;;;;;;;9.87;4.67;;;3.20;99.90;;;;;;5057528;28;20191;-41
2022/01/31 10:24:38;;;;;;;12.93;4.73;;;3.20;99.90;;;;;;5058241;28;20201;-43
2022/01/31 10:27:14;;;;;;;14.77;5.00;;;3.20;99.90;;;;;;5056682;28;20217;-42
2022/01/31 10:29:42;;;;;;;13.87;4.80;;;3.30;99.90;;;;;;5044635;28;20580;-41
2022/01/31 10:32:11;;;;;;;14.80;4.93;;;3.20;99.90;;;;;;5052184;28;20297;-43
2022/01/31 10:34:40;;;;;;;9.83;4.47;;;3.30;99.90;;;;;;5056198;28;20265;-42
2022/01/31 10:37:10;;;;;;;12.17;5.40;;;3.30;99.90;;;;;;5055074;28;20699;-41
2022/01/31 10:45:29;;;;;;;10.67;5.20;;;3.30;99.90;;;;;;5043549;28;20245;-44
2022/01/31 10:51:37;;;;;;;8.03;4.47;;;3.40;99.90;;;;;;5064672;28;20572;-43
2022/01/31 10:54:09;;;;;;;9.53;4.10;;;3.50;99.90;;;;;;5055463;28;20295;-43
2022/01/31 10:56:41;;;;;;;9.57;3.90;;;3.50;99.90;;;;;;5057682;28;20216;-44
2022/01/31 10:59:10;;;;;;;11.60;4.40;;;3.50;99.90;;;;;;5059171;28;20230;-46
2022/01/31 11:01:38;;;;;;;8.47;4.13;;;3.50;99.90;;;;;;5047163;28;20644;-47
2022/01/31 11:04:07;;;;;;;7.20;4.30;;;3.50;99.90;;;;;;5054403;28;20581;-44
2022/01/31 11:06:34;;;;;;;7.93;3.63;;;3.60;99.90;;;;;;5063276;28;20221;-44
2022/01/31 11:09:04;;;;;;;9.17;3.50;;;3.60;99.90;;;;;;5062157;28;20206;-42
2022/01/31 11:11:32;;;;;;;5.60;3.60;;;3.60;99.90;;;;;;5062755;28;20245;-42
2022/01/31 11:14:02;;;;;;;8.50;4.47;;;3.60;99.90;;;;;;5062100;28;20197;-42
2022/01/31 11:16:29;;;;;;;7.87;3.50;;;3.60;99.90;;;;;;5047341;28;20230;-44
2022/01/31 11:19:00;;;;;;;4.93;3.50;;;3.60;99.90;;;;;;5052453;28;20199;-46
2022/01/31 11:21:30;;;;;;;6.80;3.93;;;3.60;99.90;;;;;;5061793;28;20202;-45
2022/01/31 11:24:01;;;;;;;9.23;3.60;;;3.70;99.90;;;;;;5063122;28;20195;-44
2022/01/31 11:26:36;;;;;;;6.20;3.20;;;3.60;99.90;;;;;;5056021;28;20217;-44
2022/01/31 11:29:06;;;;;;;4.73;3.57;;;3.60;99.90;;;;;;5061306;28;20205;-42
2022/01/31 11:31:36;;;;;;;4.97;2.90;;;3.70;99.90;;;;;;5043338;28;20230;-44
2022/01/31 11:34:04;;;;;;;5.83;3.50;;;3.70;99.90;;;;;;5050111;28;20248;-43
2022/01/31 11:36:34;;;;;;;5.30;3.50;;;3.70;99.90;;;;;;5053458;28;20222;-42
2022/01/31 11:39:01;;;;;;;6.83;3.67;;;3.70;99.90;;;;;;5060670;28;20285;-43
2022/01/31 11:41:29;;;;;;;6.27;3.10;;;3.70;99.90;;;;;;5061712;28;20282;-44
2022/01/31 11:44:00;;;;;;;6.33;3.60;;;3.70;99.90;;;;;;5061769;28;20206;-41
2022/01/31 11:46:29;;;;;;;6.17;3.60;;;3.70;99.90;;;;;;5046673;28;20233;-46
2022/01/31 11:48:56;;;;;;;4.90;3.43;;;3.80;99.90;;;;;;5062456;28;20205;-46
2022/01/31 11:51:23;;;;;;;6.57;3.73;;;3.70;99.90;;;;;;5049989;28;20223;-46
2022/01/31 11:53:50;;;;;;;7.23;3.17;;;3.60;99.90;;;;;;5052167;28;20202;-41
2022/01/31 11:56:20;;;;;;;5.87;3.10;;;3.60;99.90;;;;;;5049504;28;20319;-44
2022/01/31 11:58:49;;;;;;;7.43;3.30;;;3.60;99.90;;;;;;5045608;28;20213;-43
2022/01/31 12:01:16;;;;;;;5.07;3.10;;;3.60;99.90;;;;;;5047991;28;20247;-43
2022/01/31 12:03:56;;;;;;;4.47;3.37;;;3.60;99.90;;;;;;5046264;28;20202;-46
2022/01/31 12:06:24;;;;;;;5.53;3.73;;;3.70;99.90;;;;;;5057789;28;20918;-42
2022/01/31 12:08:53;;;;;;;7.83;3.40;;;3.60;99.90;;;;;;5060863;28;20198;-45
2022/01/31 12:11:26;;;;;;;6.03;3.47;;;3.60;99.90;;;;;;5050545;28;20406;-44
2022/01/31 12:13:57;;;;;;;6.70;3.43;;;3.60;99.90;;;;;;5045298;28;20199;-49
2022/01/31 12:16:45;;;;;;;5.93;3.80;;;3.70;99.90;;;;;;5050489;28;20218;-45
2022/01/31 12:19:47;;;;;;;7.77;3.87;;;3.70;99.90;;;;;;5043696;28;20301;-43
2022/01/31 12:22:47;;;;;;;5.13;3.70;;;3.80;99.90;;;;;;5055202;28;20186;-45
2022/01/31 12:25:27;;;;;;;7.17;4.40;;;3.80;99.90;;;;;;5051637;28;20425;-46
2022/01/31 12:27:54;;;;;;;6.27;3.77;;;3.80;99.90;;;;;;5042766;28;20660;-45
2022/01/31 12:30:32;;;;;;;4.80;3.50;;;3.80;99.90;;;;;;5058875;28;20822;-45
2022/01/31 12:32:59;;;;;;;6.43;3.90;;;3.90;99.90;;;;;;5045793;28;20210;-45
2022/01/31 12:35:36;;;;;;;12.80;4.37;;;3.90;99.90;;;;;;5052648;28;20194;-43
2022/01/31 12:38:05;;;;;;;8.10;4.50;;;3.90;99.90;;;;;;5054885;28;20198;-44
2022/01/31 12:40:40;;;;;;;7.73;4.27;;;3.90;99.90;;;;;;5057922;28;20210;-45
2022/01/31 12:46:17;;;;;;;10.37;4.20;;;3.90;99.90;;;;;;5059525;28;20561;-42
2022/01/31 12:49:11;;;;;;;11.73;5.03;;;3.90;99.90;;;;;;5039066;28;20198;-45
2022/01/31 12:51:58;;;;;;;14.63;5.47;;;3.90;99.90;;;;;;5055769;28;20234;-43
2022/01/31 12:54:26;;;;;;;8.63;5.50;;;3.80;99.90;;;;;;5052921;28;20206;-42
2022/01/31 12:56:53;;;;;;;10.10;6.33;;;3.90;99.90;;;;;;5053522;28;20226;-47
2022/01/31 12:59:20;;;;;;;10.23;5.13;;;3.90;99.90;;;;;;5050471;28;20219;-42
2022/01/31 13:01:50;;;;;;;11.93;6.10;;;3.90;99.90;;;;;;5057020;28;20720;-42
2022/01/31 13:04:20;;;;;;;8.60;5.90;;;3.90;99.90;;;;;;5040495;28;20201;-44
2022/01/31 13:06:48;;;;;;;12.67;6.13;;;3.90;99.90;;;;;;5061707;28;20272;-46
2022/01/31 13:09:22;;;;;;;13.73;6.13;;;3.90;99.90;;;;;;5055287;28;20530;-48
2022/01/31 13:11:52;;;;;;;12.80;5.23;;;3.90;99.90;;;;;;5054921;28;20214;-45
2022/01/31 13:14:23;;;;;;;10.23;5.27;;;3.80;99.90;;;;;;5051603;28;20207;-42
2022/01/31 13:17:01;;;;;;;10.37;6.17;;;3.80;99.90;;;;;;5056397;28;20750;-45